createdAt,value
2022-08-22T00:00:11.497Z,17.64
2022-08-22T00:01:11.387Z,17.68
2022-08-22T00:02:11.445Z,17.67
2022-08-22T00:02:41.709Z,20.53
2022-08-22T00:02:42.146Z,20.07
2022-08-22T00:02:48.064Z,19.97
2022-08-22T00:02:57.069Z,18.73
2022-08-22T00:02:59.714Z,19.62
2022-08-22T00:03:01.920Z,18.34
2022-08-22T00:03:10.387Z,17.86
2022-08-22T00:03:10.965Z,18.03
2022-08-22T00:04:12.440Z,17.67
2022-08-22T00:05:11.341Z,17.60
2022-08-22T00:06:11.334Z,17.53
2022-08-22T00:07:11.331Z,17.63
2022-08-22T00:08:11.317Z,17.49
2022-08-22T00:09:11.375Z,17.51
2022-08-22T00:10:11.291Z,17.49
2022-08-22T00:11:11.283Z,17.51
2022-08-22T00:12:11.252Z,17.44
2022-08-22T00:13:11.260Z,17.53
2022-08-22T00:14:11.361Z,17.53
2022-08-22T00:15:16.793Z,17.53
2022-08-22T00:16:12.234Z,17.44
2022-08-22T00:17:11.229Z,17.48
2022-08-22T00:18:11.191Z,17.44
2022-08-22T00:19:11.196Z,17.38
2022-08-22T00:20:11.168Z,17.35
2022-08-22T00:21:11.150Z,17.35
2022-08-22T00:22:11.134Z,17.35
2022-08-22T00:23:11.121Z,17.39
2022-08-22T00:24:11.116Z,17.38
2022-08-22T00:25:24.664Z,17.31
2022-08-22T00:26:12.088Z,17.27
2022-08-22T00:27:11.079Z,17.31
2022-08-22T00:28:11.076Z,17.31
2022-08-22T00:29:11.058Z,17.29
2022-08-22T00:30:11.069Z,17.29
2022-08-22T00:31:11.037Z,17.24
2022-08-22T00:32:11.024Z,17.23
2022-08-22T00:33:11.016Z,17.29
2022-08-22T00:34:11.033Z,17.27
2022-08-22T00:35:11.024Z,17.31
2022-08-22T00:36:10.981Z,17.24
2022-08-22T00:37:10.964Z,17.30
2022-08-22T00:38:10.958Z,17.26
2022-08-22T00:39:10.937Z,17.23
2022-08-22T00:40:10.969Z,17.20
2022-08-22T00:41:10.916Z,17.12
2022-08-22T00:42:10.908Z,17.19
2022-08-22T00:43:10.896Z,17.17
2022-08-22T00:44:10.882Z,17.14
2022-08-22T00:45:10.884Z,17.17
2022-08-22T00:46:10.878Z,17.23
2022-08-22T00:47:10.854Z,17.17
2022-08-22T00:48:10.843Z,17.14
2022-08-22T00:49:10.829Z,17.17
2022-08-22T00:50:10.825Z,17.14
2022-08-22T00:51:10.816Z,17.14
2022-08-22T00:52:10.812Z,17.09
2022-08-22T00:53:10.790Z,17.14
2022-08-22T00:54:17.456Z,17.14
2022-08-22T00:55:11.777Z,17.09
2022-08-22T00:56:10.750Z,17.06
2022-08-22T00:57:10.749Z,17.08
2022-08-22T00:58:10.720Z,17.09
2022-08-22T00:59:23.761Z,17.06
2022-08-22T01:00:11.695Z,17.02
2022-08-22T01:01:10.756Z,17.04
2022-08-22T01:02:10.689Z,17.06
2022-08-22T01:03:10.678Z,17.06
2022-08-22T01:04:10.657Z,17.05
2022-08-22T01:05:10.638Z,17.12
2022-08-22T01:06:10.648Z,17.14
2022-08-22T01:07:10.627Z,17.01
2022-08-22T01:08:10.620Z,16.96
2022-08-22T01:09:10.604Z,16.99
2022-08-22T01:10:10.587Z,17.01
2022-08-22T01:11:10.588Z,16.98
2022-08-22T01:12:10.564Z,17.02
2022-08-22T01:13:10.551Z,17.02
2022-08-22T01:14:10.546Z,17.08
2022-08-22T01:15:10.525Z,17.01
2022-08-22T01:16:10.522Z,17.01
2022-08-22T01:17:10.519Z,16.93
2022-08-22T01:18:10.503Z,17.06
2022-08-22T01:19:10.490Z,17.05
2022-08-22T01:20:10.468Z,16.93
2022-08-22T01:21:10.458Z,17.05
2022-08-22T01:22:10.468Z,16.91
2022-08-22T01:23:10.435Z,16.99
2022-08-22T01:24:10.425Z,16.89
2022-08-22T01:25:10.411Z,16.93
2022-08-22T01:26:10.404Z,16.99
2022-08-22T01:27:10.713Z,16.96
2022-08-22T01:28:10.377Z,16.94
2022-08-22T01:29:10.621Z,16.98
2022-08-22T01:30:10.360Z,16.94
2022-08-22T01:31:10.346Z,16.93
2022-08-22T01:32:10.348Z,16.98
2022-08-22T01:33:10.319Z,16.93
2022-08-22T01:34:12.761Z,16.96
2022-08-22T01:35:10.301Z,16.90
2022-08-22T01:36:10.282Z,16.83
2022-08-22T01:37:10.298Z,16.89
2022-08-22T01:38:10.268Z,16.82
2022-08-22T01:39:10.254Z,16.83
2022-08-22T01:40:10.368Z,16.84
2022-08-22T01:41:10.468Z,16.87
2022-08-22T01:42:10.252Z,16.86
2022-08-22T01:43:10.203Z,16.82
2022-08-22T01:44:10.199Z,16.82
2022-08-22T01:45:10.184Z,16.75
2022-08-22T01:46:10.184Z,16.76
2022-08-22T01:47:10.168Z,16.76
2022-08-22T01:48:10.164Z,16.76
2022-08-22T01:49:10.141Z,16.79
2022-08-22T01:50:10.126Z,16.80
2022-08-22T01:51:10.120Z,16.79
2022-08-22T01:52:10.103Z,16.76
2022-08-22T01:53:10.111Z,16.80
2022-08-22T01:54:10.083Z,16.71
2022-08-22T01:55:10.068Z,16.71
2022-08-22T01:56:10.058Z,16.74
2022-08-22T01:57:10.054Z,16.74
2022-08-22T01:58:10.057Z,16.72
2022-08-22T01:59:11.388Z,16.69
2022-08-22T02:00:10.009Z,16.69
2022-08-22T02:01:10.074Z,16.74
2022-08-22T02:02:09.989Z,16.64
2022-08-22T02:03:09.989Z,16.64
2022-08-22T02:04:09.987Z,16.71
2022-08-22T02:05:09.949Z,16.65
2022-08-22T02:06:09.940Z,16.57
2022-08-22T02:07:09.927Z,16.56
2022-08-22T02:08:09.926Z,16.53
2022-08-22T02:09:09.914Z,16.51
2022-08-22T02:10:09.910Z,16.56
2022-08-22T02:11:09.885Z,16.53
2022-08-22T02:12:21.469Z,16.53
2022-08-22T02:13:10.859Z,16.49
2022-08-22T02:14:09.866Z,16.44
2022-08-22T02:15:09.842Z,16.49
2022-08-22T02:16:09.832Z,16.50
2022-08-22T02:17:09.815Z,16.51
2022-08-22T02:18:09.803Z,16.44
2022-08-22T02:19:09.820Z,16.49
2022-08-22T02:20:09.786Z,16.49
2022-08-22T02:21:09.780Z,16.61
2022-08-22T02:22:09.760Z,16.44
2022-08-22T02:23:09.748Z,16.49
2022-08-22T02:24:09.761Z,16.47
2022-08-22T02:25:09.726Z,16.54
2022-08-22T02:26:09.733Z,16.53
2022-08-22T02:27:09.704Z,16.56
2022-08-22T02:28:09.693Z,16.51
2022-08-22T02:29:09.685Z,16.51
2022-08-22T02:30:09.681Z,16.50
2022-08-22T02:31:09.675Z,16.50
2022-08-22T02:32:09.647Z,16.54
2022-08-22T02:33:09.630Z,16.38
2022-08-22T02:34:09.649Z,16.56
2022-08-22T02:35:09.610Z,16.44
2022-08-22T02:36:09.606Z,16.43
2022-08-22T02:37:09.598Z,16.49
2022-08-22T02:38:09.577Z,16.43
2022-08-22T02:39:09.619Z,16.41
2022-08-22T02:40:09.636Z,16.50
2022-08-22T02:41:09.548Z,16.36
2022-08-22T02:42:09.537Z,16.39
2022-08-22T02:43:09.524Z,16.39
2022-08-22T02:44:09.505Z,16.38
2022-08-22T02:45:09.514Z,16.43
2022-08-22T02:46:09.483Z,16.34
2022-08-22T02:47:09.477Z,16.35
2022-08-22T02:48:09.469Z,16.32
2022-08-22T02:49:09.461Z,16.34
2022-08-22T02:50:12.941Z,16.28
2022-08-22T02:51:09.438Z,16.26
2022-08-22T02:52:09.425Z,16.25
2022-08-22T02:53:09.409Z,16.28
2022-08-22T02:54:09.404Z,16.21
2022-08-22T02:55:09.399Z,16.21
2022-08-22T02:56:09.367Z,16.21
2022-08-22T02:57:14.290Z,16.20
2022-08-22T02:58:10.353Z,16.26
2022-08-22T02:59:09.343Z,16.24
2022-08-22T03:00:31.791Z,16.24
2022-08-22T03:01:10.321Z,16.20
2022-08-22T03:02:09.318Z,16.21
2022-08-22T03:03:09.292Z,16.09
2022-08-22T03:04:09.284Z,16.17
2022-08-22T03:05:09.286Z,16.20
2022-08-22T03:06:09.259Z,16.13
2022-08-22T03:07:09.241Z,16.25
2022-08-22T03:08:09.240Z,16.13
2022-08-22T03:09:09.233Z,16.15
2022-08-22T03:10:09.232Z,16.15
2022-08-22T03:11:09.202Z,16.20
2022-08-22T03:12:09.196Z,16.15
2022-08-22T03:13:09.193Z,16.24
2022-08-22T03:14:09.167Z,16.26
2022-08-22T03:15:09.175Z,16.25
2022-08-22T03:16:09.149Z,16.26
2022-08-22T03:17:09.137Z,16.26
2022-08-22T03:18:09.126Z,16.28
2022-08-22T03:19:18.396Z,16.31
2022-08-22T03:20:10.125Z,16.28
2022-08-22T03:21:09.084Z,16.36
2022-08-22T03:22:09.087Z,16.41
2022-08-22T03:23:09.075Z,16.39
2022-08-22T03:24:09.068Z,16.43
2022-08-22T03:25:09.066Z,16.39
2022-08-22T03:26:09.036Z,16.38
2022-08-22T03:27:09.025Z,16.44
2022-08-22T03:28:09.025Z,16.50
2022-08-22T03:29:09.003Z,16.51
2022-08-22T03:30:08.996Z,16.51
2022-08-22T03:31:08.972Z,16.49
2022-08-22T03:32:08.966Z,16.47
2022-08-22T03:33:08.960Z,16.53
2022-08-22T03:34:08.953Z,16.49
2022-08-22T03:35:08.946Z,16.49
2022-08-22T03:36:08.912Z,16.51
2022-08-22T03:37:08.914Z,16.51
2022-08-22T03:38:08.888Z,16.50
2022-08-22T03:39:17.500Z,16.47
2022-08-22T03:40:09.985Z,16.51
2022-08-22T03:41:08.867Z,16.53
2022-08-22T03:42:08.856Z,16.51
2022-08-22T03:43:08.836Z,16.53
2022-08-22T03:44:08.824Z,16.51
2022-08-22T03:45:08.823Z,16.64
2022-08-22T03:46:08.823Z,16.62
2022-08-22T03:47:08.787Z,16.65
2022-08-22T03:48:08.783Z,16.59
2022-08-22T03:49:08.769Z,16.62
2022-08-22T03:50:08.759Z,16.64
2022-08-22T03:51:08.776Z,16.62
2022-08-22T03:52:08.737Z,16.69
2022-08-22T03:53:15.303Z,16.74
2022-08-22T03:54:09.713Z,16.72
2022-08-22T03:55:08.699Z,16.75
2022-08-22T03:56:08.691Z,16.72
2022-08-22T03:57:08.701Z,16.75
2022-08-22T03:58:15.886Z,16.69
2022-08-22T03:59:10.125Z,16.69
2022-08-22T04:00:08.656Z,16.75
2022-08-22T04:01:08.697Z,16.72
2022-08-22T04:02:41.892Z,16.76
2022-08-22T04:03:09.628Z,16.79
2022-08-22T04:04:08.594Z,16.79
2022-08-22T04:05:09.732Z,16.68
2022-08-22T04:06:12.646Z,16.71
2022-08-22T04:07:15.591Z,16.66
2022-08-22T04:08:11.688Z,16.66
2022-08-22T04:09:08.542Z,16.72
2022-08-22T04:10:08.537Z,16.62
2022-08-22T04:11:08.525Z,16.61
2022-08-22T04:12:08.510Z,16.62
2022-08-22T04:13:08.499Z,16.66
2022-08-22T04:14:08.507Z,16.66
2022-08-22T04:15:08.480Z,16.61
2022-08-22T04:16:08.458Z,16.62
2022-08-22T04:17:08.448Z,16.56
2022-08-22T04:18:08.450Z,16.64
2022-08-22T04:19:08.433Z,16.56
2022-08-22T04:20:08.426Z,16.56
2022-08-22T04:21:08.399Z,16.59
2022-08-22T04:22:08.390Z,16.59
2022-08-22T04:23:08.381Z,16.59
2022-08-22T04:24:08.374Z,16.54
2022-08-22T04:25:08.548Z,16.53
2022-08-22T04:26:10.757Z,16.56
2022-08-22T04:27:08.334Z,16.54
2022-08-22T04:28:08.325Z,16.57
2022-08-22T04:29:08.332Z,16.53
2022-08-22T04:30:08.315Z,16.50
2022-08-22T04:31:08.287Z,16.46
2022-08-22T04:32:10.643Z,16.49
2022-08-22T04:33:09.265Z,16.46
2022-08-22T04:34:08.252Z,16.54
2022-08-22T04:35:08.263Z,16.46
2022-08-22T04:36:08.259Z,16.51
2022-08-22T04:37:08.217Z,16.49
2022-08-22T04:38:09.226Z,16.50
2022-08-22T04:39:08.200Z,16.56
2022-08-22T04:40:08.269Z,16.56
2022-08-22T04:41:08.181Z,16.51
2022-08-22T04:42:31.214Z,16.53
2022-08-22T04:43:09.154Z,16.61
2022-08-22T04:44:08.140Z,16.56
2022-08-22T04:45:08.128Z,16.44
2022-08-22T04:46:08.118Z,16.51
2022-08-22T04:47:08.116Z,16.54
2022-08-22T04:48:08.103Z,16.51
2022-08-22T04:49:08.091Z,16.44
2022-08-22T04:50:08.072Z,16.46
2022-08-22T04:51:08.062Z,16.44
2022-08-22T04:52:08.060Z,16.43
2022-08-22T04:53:08.043Z,16.53
2022-08-22T04:54:08.035Z,16.47
2022-08-22T04:55:08.015Z,16.46
2022-08-22T04:56:08.056Z,16.56
2022-08-22T04:57:08.052Z,16.50
2022-08-22T04:58:07.982Z,16.53
2022-08-22T04:59:07.973Z,16.56
2022-08-22T05:00:07.971Z,16.50
2022-08-22T05:01:07.954Z,16.54
2022-08-22T05:02:07.987Z,16.50
2022-08-22T05:03:07.923Z,16.49
2022-08-22T05:04:07.914Z,16.54
2022-08-22T05:05:13.746Z,16.49
2022-08-22T05:06:08.912Z,16.39
2022-08-22T05:07:07.877Z,16.54
2022-08-22T05:08:07.873Z,16.54
2022-08-22T05:09:07.854Z,16.54
2022-08-22T05:10:12.221Z,16.51
2022-08-22T05:11:07.850Z,16.57
2022-08-22T05:12:07.824Z,16.50
2022-08-22T05:13:07.807Z,16.50
2022-08-22T05:14:07.813Z,16.54
2022-08-22T05:15:09.740Z,16.59
2022-08-22T05:16:07.790Z,16.53
2022-08-22T05:17:07.767Z,16.54
2022-08-22T05:18:07.750Z,16.53
2022-08-22T05:19:07.742Z,16.53
2022-08-22T05:20:07.736Z,16.50
2022-08-22T05:21:07.723Z,16.61
2022-08-22T05:22:07.728Z,16.59
2022-08-22T05:23:07.692Z,16.62
2022-08-22T05:24:08.685Z,16.62
2022-08-22T05:25:07.677Z,16.65
2022-08-22T05:26:07.661Z,16.66
2022-08-22T05:27:07.670Z,16.69
2022-08-22T05:28:07.635Z,16.64
2022-08-22T05:29:07.636Z,16.71
2022-08-22T05:30:07.617Z,16.71
2022-08-22T05:31:07.605Z,16.75
2022-08-22T05:32:07.611Z,16.72
2022-08-22T05:33:07.587Z,16.69
2022-08-22T05:34:07.571Z,16.87
2022-08-22T05:35:07.569Z,16.82
2022-08-22T05:36:07.554Z,16.90
2022-08-22T05:37:08.082Z,16.93
2022-08-22T05:38:07.521Z,17.02
2022-08-22T05:39:07.510Z,16.96
2022-08-22T05:40:07.606Z,16.90
2022-08-22T05:41:07.492Z,17.05
2022-08-22T05:42:07.482Z,16.96
2022-08-22T05:43:07.487Z,17.06
2022-08-22T05:44:07.456Z,17.08
2022-08-22T05:45:11.485Z,17.12
2022-08-22T05:46:08.435Z,17.11
2022-08-22T05:47:07.445Z,17.19
2022-08-22T05:48:07.409Z,17.20
2022-08-22T05:49:07.399Z,17.19
2022-08-22T05:50:07.387Z,17.26
2022-08-22T05:51:07.373Z,17.37
2022-08-22T05:52:07.376Z,17.27
2022-08-22T05:53:07.358Z,17.33
2022-08-22T05:54:07.340Z,17.31
2022-08-22T05:55:07.328Z,17.42
2022-08-22T05:56:07.316Z,17.49
2022-08-22T05:57:08.061Z,17.54
2022-08-22T05:58:07.298Z,17.51
2022-08-22T05:59:08.180Z,17.54
2022-08-22T06:00:07.286Z,17.45
2022-08-22T06:01:07.270Z,17.53
2022-08-22T06:02:07.353Z,17.48
2022-08-22T06:03:07.232Z,17.60
2022-08-22T06:04:07.229Z,17.64
2022-08-22T06:05:11.738Z,17.59
2022-08-22T06:06:07.203Z,17.76
2022-08-22T06:07:07.205Z,17.79
2022-08-22T06:08:07.183Z,17.83
2022-08-22T06:09:07.168Z,17.88
2022-08-22T06:10:07.156Z,17.86
2022-08-22T06:11:07.148Z,17.94
2022-08-22T06:12:07.132Z,17.91
2022-08-22T06:13:11.565Z,18.03
2022-08-22T06:14:07.108Z,18.03
2022-08-22T06:15:11.948Z,18.05
2022-08-22T06:16:08.084Z,18.07
2022-08-22T06:17:07.074Z,18.04
2022-08-22T06:18:07.081Z,18.19
2022-08-22T06:19:19.104Z,18.13
2022-08-22T06:20:08.046Z,18.16
2022-08-22T06:21:07.032Z,18.16
2022-08-22T06:22:07.041Z,18.26
2022-08-22T06:23:07.013Z,18.30
2022-08-22T06:24:06.999Z,18.40
2022-08-22T06:25:06.987Z,18.40
2022-08-22T06:26:20.722Z,18.48
2022-08-22T06:27:07.983Z,18.49
2022-08-22T06:28:06.954Z,18.56
2022-08-22T06:29:06.944Z,18.53
2022-08-22T06:30:06.935Z,18.60
2022-08-22T06:31:06.913Z,18.71
2022-08-22T06:32:06.903Z,18.68
2022-08-22T06:33:06.913Z,18.70
2022-08-22T06:34:07.894Z,18.80
2022-08-22T06:35:06.880Z,18.80
2022-08-22T06:36:06.859Z,18.93
2022-08-22T06:37:06.862Z,18.93
2022-08-22T06:38:06.859Z,19.05
2022-08-22T06:39:06.828Z,19.08
2022-08-22T06:40:06.873Z,19.00
2022-08-22T06:41:06.825Z,19.11
2022-08-22T06:42:06.801Z,19.12
2022-08-22T06:43:06.780Z,19.19
2022-08-22T06:44:06.792Z,19.19
2022-08-22T06:45:06.772Z,19.31
2022-08-22T06:46:06.756Z,19.30
2022-08-22T06:47:06.738Z,19.36
2022-08-22T06:48:07.256Z,19.37
2022-08-22T06:49:06.727Z,19.45
2022-08-22T06:50:06.729Z,19.48
2022-08-22T06:51:07.691Z,19.60
2022-08-22T06:52:06.702Z,19.60
2022-08-22T06:53:06.673Z,19.59
2022-08-22T06:54:06.679Z,19.60
2022-08-22T06:55:06.655Z,19.60
2022-08-22T06:56:06.640Z,19.71
2022-08-22T06:57:06.647Z,19.66
2022-08-22T06:58:06.612Z,19.78
2022-08-22T06:59:06.623Z,19.84
2022-08-22T07:00:06.596Z,19.84
2022-08-22T07:01:15.775Z,19.96
2022-08-22T07:02:07.691Z,19.86
2022-08-22T07:03:06.575Z,19.92
2022-08-22T07:04:06.547Z,19.99
2022-08-22T07:05:06.563Z,20.07
2022-08-22T07:06:06.522Z,20.09
2022-08-22T07:07:06.518Z,20.17
2022-08-22T07:08:06.506Z,20.11
2022-08-22T07:09:06.826Z,20.07
2022-08-22T07:10:06.517Z,20.17
2022-08-22T07:11:06.476Z,20.17
2022-08-22T07:12:06.457Z,20.24
2022-08-22T07:13:06.456Z,20.28
2022-08-22T07:14:06.436Z,20.28
2022-08-22T07:15:06.448Z,20.25
2022-08-22T07:16:06.414Z,20.26
2022-08-22T07:17:06.399Z,20.37
2022-08-22T07:18:06.390Z,20.47
2022-08-22T07:19:06.379Z,20.48
2022-08-22T07:20:06.389Z,20.47
2022-08-22T07:21:06.373Z,20.47
2022-08-22T07:22:06.371Z,20.50
2022-08-22T07:23:06.361Z,20.59
2022-08-22T07:24:06.330Z,20.62
2022-08-22T07:25:06.332Z,20.62
2022-08-22T07:26:06.340Z,20.67
2022-08-22T07:27:06.302Z,20.66
2022-08-22T07:28:06.274Z,20.71
2022-08-22T07:29:10.711Z,20.77
2022-08-22T07:30:09.982Z,20.77
2022-08-22T07:31:06.241Z,20.72
2022-08-22T07:32:06.227Z,20.85
2022-08-22T07:33:25.651Z,20.84
2022-08-22T07:34:07.206Z,20.95
2022-08-22T07:35:06.190Z,20.95
2022-08-22T07:36:06.191Z,20.87
2022-08-22T07:37:06.171Z,20.95
2022-08-22T07:38:06.181Z,20.96
2022-08-22T07:39:06.149Z,20.96
2022-08-22T07:40:06.203Z,20.96
2022-08-22T07:41:06.137Z,21.05
2022-08-22T07:42:06.151Z,21.06
2022-08-22T07:43:06.121Z,21.08
2022-08-22T07:44:06.100Z,21.10
2022-08-22T07:45:06.138Z,21.12
2022-08-22T07:46:06.125Z,21.15
2022-08-22T07:47:06.069Z,21.20
2022-08-22T07:48:06.089Z,21.24
2022-08-22T07:49:09.635Z,21.26
2022-08-22T07:50:06.055Z,21.22
2022-08-22T07:51:06.025Z,21.32
2022-08-22T07:52:06.139Z,21.32
2022-08-22T07:53:05.997Z,21.37
2022-08-22T07:54:05.982Z,21.39
2022-08-22T07:55:05.975Z,21.47
2022-08-22T07:56:05.963Z,21.40
2022-08-22T07:57:05.955Z,21.48
2022-08-22T07:58:05.936Z,21.43
2022-08-22T07:59:09.910Z,21.43
2022-08-22T08:00:06.911Z,21.55
2022-08-22T08:01:05.944Z,21.52
2022-08-22T08:02:06.181Z,21.59
2022-08-22T08:03:05.909Z,21.61
2022-08-22T08:04:05.887Z,21.58
2022-08-22T08:05:05.863Z,21.58
2022-08-22T08:06:05.881Z,21.54
2022-08-22T08:07:05.887Z,21.72
2022-08-22T08:08:05.905Z,21.72
2022-08-22T08:09:05.848Z,21.70
2022-08-22T08:10:07.964Z,21.81
2022-08-22T08:11:06.809Z,21.77
2022-08-22T08:12:05.805Z,21.82
2022-08-22T08:13:05.837Z,21.84
2022-08-22T08:14:05.776Z,21.92
2022-08-22T08:15:05.774Z,21.92
2022-08-22T08:16:05.758Z,21.98
2022-08-22T08:17:05.733Z,21.88
2022-08-22T08:18:05.803Z,22.05
2022-08-22T08:19:05.696Z,22.05
2022-08-22T08:20:05.693Z,22.08
2022-08-22T08:21:05.682Z,22.05
2022-08-22T08:22:05.691Z,22.15
2022-08-22T08:23:05.749Z,22.19
2022-08-22T08:24:05.681Z,22.30
2022-08-22T08:25:05.645Z,22.28
2022-08-22T08:26:05.629Z,22.29
2022-08-22T08:27:05.625Z,22.33
2022-08-22T08:28:05.675Z,22.33
2022-08-22T08:29:05.595Z,22.45
2022-08-22T08:30:05.605Z,22.44
2022-08-22T08:31:05.568Z,22.44
2022-08-22T08:32:05.547Z,22.53
2022-08-22T08:33:24.729Z,22.58
2022-08-22T08:34:06.527Z,22.56
2022-08-22T08:35:05.532Z,22.65
2022-08-22T08:36:05.537Z,22.70
2022-08-22T08:37:05.590Z,22.78
2022-08-22T08:38:05.556Z,22.78
2022-08-22T08:39:05.469Z,22.87
2022-08-22T08:40:05.532Z,22.91
2022-08-22T08:41:05.463Z,22.96
2022-08-22T08:42:05.458Z,23.03
2022-08-22T08:43:05.506Z,23.06
2022-08-22T08:44:06.446Z,23.13
2022-08-22T08:45:05.435Z,23.15
2022-08-22T08:46:05.455Z,23.14
2022-08-22T08:47:05.435Z,23.20
2022-08-22T08:48:05.486Z,23.33
2022-08-22T08:49:06.324Z,23.37
2022-08-22T08:50:05.394Z,23.31
2022-08-22T08:51:05.394Z,23.33
2022-08-22T08:52:05.334Z,23.38
2022-08-22T08:53:05.445Z,23.36
2022-08-22T08:54:05.348Z,23.38
2022-08-22T08:55:19.791Z,23.47
2022-08-22T08:56:06.301Z,23.44
2022-08-22T08:58:06.852Z,23.51
2022-08-22T08:59:10.055Z,23.58
2022-08-22T09:00:06.281Z,23.62
2022-08-22T09:01:05.295Z,23.73
2022-08-22T09:02:05.247Z,23.74
2022-08-22T09:03:06.378Z,23.81
2022-08-22T09:04:05.262Z,23.88
2022-08-22T09:05:05.568Z,23.90
2022-08-22T09:06:05.223Z,23.96
2022-08-22T09:07:05.192Z,24.08
2022-08-22T09:08:05.435Z,24.11
2022-08-22T09:09:05.216Z,24.10
2022-08-22T09:10:05.201Z,24.23
2022-08-22T09:11:09.961Z,24.23
2022-08-22T09:12:06.117Z,24.29
2022-08-22T09:13:12.245Z,24.28
2022-08-22T09:14:06.120Z,24.33
2022-08-22T09:15:05.138Z,24.37
2022-08-22T09:16:06.099Z,24.36
2022-08-22T09:17:05.109Z,24.43
2022-08-22T09:18:05.158Z,24.48
2022-08-22T09:19:05.081Z,24.57
2022-08-22T09:20:17.755Z,24.58
2022-08-22T09:21:06.065Z,24.70
2022-08-22T09:22:05.014Z,24.77
2022-08-22T09:23:05.126Z,24.85
2022-08-22T09:24:06.008Z,24.98
2022-08-22T09:25:06.133Z,25.00
2022-08-22T09:26:05.122Z,24.98
2022-08-22T09:27:08.747Z,25.06
2022-08-22T09:28:05.000Z,25.06
2022-08-22T09:29:04.973Z,24.98
2022-08-22T09:30:04.986Z,24.98
2022-08-22T09:31:16.524Z,24.92
2022-08-22T09:32:05.930Z,24.78
2022-08-22T09:33:06.013Z,24.82
2022-08-22T09:34:05.252Z,24.70
2022-08-22T09:35:04.902Z,24.62
2022-08-22T09:36:05.139Z,24.63
2022-08-22T09:37:04.855Z,24.58
2022-08-22T09:38:04.910Z,24.66
2022-08-22T09:39:05.888Z,24.58
2022-08-22T09:40:04.888Z,24.55
2022-08-22T09:40:15.240Z,23.47
2022-08-22T09:41:04.805Z,24.54
2022-08-22T09:42:04.831Z,24.57
2022-08-22T09:43:04.896Z,24.63
2022-08-22T09:44:04.797Z,24.74
2022-08-22T09:45:04.776Z,24.82
2022-08-22T09:46:04.731Z,24.83
2022-08-22T09:47:04.702Z,24.89
2022-08-22T09:48:07.155Z,25.03
2022-08-22T09:49:05.550Z,25.06
2022-08-22T09:50:04.722Z,25.18
2022-08-22T09:51:28.766Z,25.26
2022-08-22T09:52:14.366Z,25.41
2022-08-22T09:53:05.766Z,25.41
2022-08-22T09:54:04.650Z,25.56
2022-08-22T09:55:08.156Z,25.70
2022-08-22T09:56:15.143Z,25.81
2022-08-22T09:57:05.634Z,26.02
2022-08-22T09:58:04.659Z,26.23
2022-08-22T09:59:04.656Z,26.28
2022-08-22T10:00:04.622Z,26.41
2022-08-22T10:01:04.601Z,26.62
2022-08-22T10:02:06.018Z,26.75
2022-08-22T10:03:04.548Z,26.99
2022-08-22T10:04:04.579Z,27.19
2022-08-22T10:05:04.522Z,27.39
2022-08-22T10:06:05.567Z,27.54
2022-08-22T10:07:11.190Z,27.62
2022-08-22T10:08:05.545Z,27.74
2022-08-22T10:09:04.574Z,27.92
2022-08-22T10:10:04.446Z,28.01
2022-08-22T10:11:06.542Z,28.04
2022-08-22T10:12:04.448Z,27.98
2022-08-22T10:13:04.423Z,27.92
2022-08-22T10:14:05.522Z,27.90
2022-08-22T10:15:04.427Z,27.86
2022-08-22T10:16:04.395Z,27.89
2022-08-22T10:17:04.390Z,27.89
2022-08-22T10:18:04.381Z,27.89
2022-08-22T10:19:05.204Z,27.97
2022-08-22T10:20:04.422Z,28.05
2022-08-22T10:21:04.346Z,28.02
2022-08-22T10:22:04.333Z,27.97
2022-08-22T10:23:04.332Z,27.98
2022-08-22T10:24:07.174Z,27.92
2022-08-22T10:25:04.820Z,27.98
2022-08-22T10:26:04.270Z,27.98
2022-08-22T10:27:04.286Z,28.01
2022-08-22T10:28:04.277Z,27.97
2022-08-22T10:29:04.249Z,27.97
2022-08-22T10:30:04.327Z,28.07
2022-08-22T10:31:04.257Z,27.98
2022-08-22T10:32:07.702Z,28.05
2022-08-22T10:33:05.331Z,28.22
2022-08-22T10:34:04.221Z,28.20
2022-08-22T10:35:06.243Z,28.30
2022-08-22T10:36:05.147Z,28.48
2022-08-22T10:37:04.208Z,28.57
2022-08-22T10:38:04.160Z,28.76
2022-08-22T10:39:09.506Z,28.79
2022-08-22T10:40:05.332Z,28.97
2022-08-22T10:41:05.519Z,28.98
2022-08-22T10:42:05.125Z,29.05
2022-08-22T10:43:04.125Z,29.25
2022-08-22T10:44:04.490Z,29.29
2022-08-22T10:45:04.103Z,29.42
2022-08-22T10:46:04.176Z,29.54
2022-08-22T10:47:04.058Z,29.66
2022-08-22T10:48:04.067Z,29.65
2022-08-22T10:49:05.834Z,29.73
2022-08-22T10:50:10.759Z,29.72
2022-08-22T10:51:08.817Z,29.65
2022-08-22T10:52:14.725Z,29.55
2022-08-22T10:53:05.001Z,29.54
2022-08-22T10:54:03.988Z,29.48
2022-08-22T10:55:05.720Z,29.32
2022-08-22T10:56:04.963Z,29.21
2022-08-22T10:57:03.950Z,29.07
2022-08-22T10:58:03.985Z,28.88
2022-08-22T10:59:04.041Z,28.86
2022-08-22T11:00:03.928Z,28.78
2022-08-22T11:01:41.616Z,28.66
2022-08-22T11:02:04.966Z,28.53
2022-08-22T11:03:03.894Z,28.46
2022-08-22T11:04:04.864Z,28.34
2022-08-22T11:05:03.856Z,28.17
2022-08-22T11:06:03.931Z,28.16
2022-08-22T11:07:03.844Z,28.01
2022-08-22T11:08:03.840Z,27.95
2022-08-22T11:09:03.849Z,27.89
2022-08-22T11:10:03.813Z,27.80
2022-08-22T11:11:04.051Z,27.72
2022-08-22T11:12:04.313Z,27.71
2022-08-22T11:13:03.768Z,27.64
2022-08-22T11:14:03.763Z,27.54
2022-08-22T11:15:03.883Z,27.45
2022-08-22T11:16:04.275Z,27.42
2022-08-22T11:17:27.500Z,27.41
2022-08-22T11:18:04.712Z,27.33
2022-08-22T11:19:15.011Z,27.34
2022-08-22T11:20:04.705Z,27.34
2022-08-22T11:21:03.759Z,27.39
2022-08-22T11:22:03.928Z,27.36
2022-08-22T11:23:03.660Z,27.42
2022-08-22T11:24:03.669Z,27.44
2022-08-22T11:25:04.733Z,27.45
2022-08-22T11:26:05.014Z,27.55
2022-08-22T11:27:03.696Z,27.52
2022-08-22T11:28:03.597Z,27.52
2022-08-22T11:29:13.838Z,27.48
2022-08-22T11:30:04.577Z,27.58
2022-08-22T11:31:03.644Z,27.51
2022-08-22T11:32:07.632Z,27.52
2022-08-22T11:33:03.913Z,27.39
2022-08-22T11:34:03.537Z,27.34
2022-08-22T11:35:03.585Z,27.33
2022-08-22T11:36:04.801Z,27.23
2022-08-22T11:37:03.485Z,27.14
2022-08-22T11:38:04.494Z,27.07
2022-08-22T11:39:03.506Z,26.99
2022-08-22T11:40:03.517Z,27.00
2022-08-22T11:41:03.448Z,27.00
2022-08-22T11:42:03.525Z,26.90
2022-08-22T11:43:03.494Z,27.08
2022-08-22T11:44:03.710Z,26.97
2022-08-22T11:45:03.427Z,26.93
2022-08-22T11:46:03.423Z,27.00
2022-08-22T11:47:03.386Z,26.97
2022-08-22T11:48:03.390Z,26.97
2022-08-22T11:49:03.378Z,26.99
2022-08-22T11:50:03.356Z,27.11
2022-08-22T11:51:03.355Z,26.93
2022-08-22T11:52:04.341Z,26.95
2022-08-22T11:53:04.465Z,26.99
2022-08-22T11:54:03.297Z,26.95
2022-08-22T11:55:03.287Z,26.89
2022-08-22T11:56:05.586Z,26.85
2022-08-22T11:57:03.352Z,26.78
2022-08-22T11:58:03.291Z,26.81
2022-08-22T11:59:03.241Z,26.81
2022-08-22T12:00:03.244Z,26.72
2022-08-22T12:01:03.219Z,26.68
2022-08-22T12:02:03.904Z,26.72
2022-08-22T12:03:03.247Z,26.70
2022-08-22T12:04:03.455Z,26.68
2022-08-22T12:05:03.177Z,26.63
2022-08-22T12:06:03.195Z,26.80
2022-08-22T12:07:03.168Z,26.78
2022-08-22T12:08:03.160Z,26.78
2022-08-22T12:09:03.149Z,26.71
2022-08-22T12:10:03.123Z,26.72
2022-08-22T12:11:03.129Z,26.71
2022-08-22T12:12:04.736Z,26.65
2022-08-22T12:13:03.217Z,26.74
2022-08-22T12:14:06.185Z,26.63
2022-08-22T12:15:03.182Z,26.55
2022-08-22T12:16:03.073Z,26.60
2022-08-22T12:17:03.063Z,26.63
2022-08-22T12:18:03.124Z,26.70
2022-08-22T12:19:03.038Z,26.68
2022-08-22T12:20:18.661Z,26.63
2022-08-22T12:21:04.018Z,26.53
2022-08-22T12:22:02.997Z,26.56
2022-08-22T12:23:03.244Z,26.40
2022-08-22T12:24:06.241Z,26.34
2022-08-22T12:25:03.974Z,26.40
2022-08-22T12:26:02.964Z,26.38
2022-08-22T12:27:07.808Z,26.45
2022-08-22T12:28:02.996Z,26.43
2022-08-22T12:29:02.928Z,26.43
2022-08-22T12:30:02.911Z,26.53
2022-08-22T12:31:02.917Z,26.55
2022-08-22T12:32:02.953Z,26.55
2022-08-22T12:33:02.870Z,26.57
2022-08-22T12:34:02.863Z,26.40
2022-08-22T12:35:02.869Z,26.55
2022-08-22T12:36:03.958Z,26.53
2022-08-22T12:37:02.851Z,26.55
2022-08-22T12:38:02.873Z,26.53
2022-08-22T12:39:02.810Z,26.49
2022-08-22T12:40:02.927Z,26.50
2022-08-22T12:41:02.871Z,26.50
2022-08-22T12:42:04.181Z,26.60
2022-08-22T12:43:02.780Z,26.67
2022-08-22T12:44:02.762Z,26.56
2022-08-22T12:45:03.468Z,26.65